Time;durP1;ratioP1;P1;durP2;ratioP2;P2;SDS_P1;SDS_P2;PMS_P1;PMS_P2;Temp;Humidity;BMP_temperature;BMP_pressure;BME280_temperature;BME280_humidity;BME280_pressure;Samples;Min_cycle;Max_cycle;Signal;HPM_P1;HPM_P2
2022/08/06 00:02:12;;;;;;;;;0.75;0.75;;;;;;;;4990827;28;8809;-80
2022/08/06 00:04:40;;;;;;;;;0.00;0.00;;;;;;;;4985534;28;8859;-78
2022/08/06 00:07:07;;;;;;;;;1.00;1.00;;;;;;;;4991828;28;9034;-80
2022/08/06 00:09:34;;;;;;;;;1.00;1.00;;;;;;;;4985050;28;8909;-80
2022/08/06 00:12:04;;;;;;;;;1.00;1.00;;;;;;;;4984450;28;8977;-79
2022/08/06 00:14:32;;;;;;;;;1.00;1.00;;;;;;;;4982659;28;8879;-79
2022/08/06 00:17:00;;;;;;;;;1.00;1.00;;;;;;;;4980344;28;8883;-79
2022/08/06 00:19:28;;;;;;;;;1.00;1.00;;;;;;;;4983432;28;8871;-81
2022/08/06 00:21:55;;;;;;;;;1.00;1.00;;;;;;;;4982522;28;8993;-79
2022/08/06 00:24:23;;;;;;;;;0.00;0.00;;;;;;;;4983228;28;8851;-81
2022/08/06 00:26:50;;;;;;;;;1.00;1.00;;;;;;;;4982582;28;8886;-78
2022/08/06 00:29:19;;;;;;;;;1.00;1.00;;;;;;;;4985886;28;8947;-79
2022/08/06 00:31:46;;;;;;;;;1.00;1.00;;;;;;;;4985644;28;8831;-78
2022/08/06 00:34:13;;;;;;;;;1.00;1.00;;;;;;;;4987384;28;9029;-80
2022/08/06 00:36:41;;;;;;;;;1.00;1.00;;;;;;;;4986564;28;8859;-78
2022/08/06 00:39:08;;;;;;;;;0.50;0.50;;;;;;;;4986606;28;8997;-79
2022/08/06 00:41:37;;;;;;;;;1.33;1.33;;;;;;;;4986968;28;8946;-80
2022/08/06 00:44:04;;;;;;;;;1.50;0.00;;;;;;;;4994576;28;8973;-82
2022/08/06 00:46:33;;;;;;;;;1.75;1.75;;;;;;;;4985700;28;8878;-82
2022/08/06 00:49:00;;;;;;;;;1.00;1.00;;;;;;;;4986268;28;8871;-79
2022/08/06 00:51:28;;;;;;;;;1.00;1.00;;;;;;;;4987188;28;9097;-82
2022/08/06 00:53:56;;;;;;;;;1.67;1.67;;;;;;;;4984580;28;9032;-79
2022/08/06 00:56:23;;;;;;;;;1.00;1.00;;;;;;;;4985954;28;9113;-79
2022/08/06 00:58:50;;;;;;;;;1.00;1.00;;;;;;;;4982266;28;9051;-81
2022/08/06 01:01:18;;;;;;;;;1.33;1.33;;;;;;;;4985258;28;9069;-80
2022/08/06 01:03:47;;;;;;;;;3.00;1.00;;;;;;;;4987353;28;9302;-81
2022/08/06 01:06:14;;;;;;;;;1.67;1.67;;;;;;;;4984722;28;9303;-79
2022/08/06 01:08:41;;;;;;;;;3.00;1.33;;;;;;;;4984231;28;9261;-77
2022/08/06 01:11:09;;;;;;;;;1.00;1.00;;;;;;;;4992105;28;9222;-81
2022/08/06 01:13:36;;;;;;;;;1.33;1.33;;;;;;;;4986414;28;9291;-80
2022/08/06 01:16:11;;;;;;;;;1.00;1.00;;;;;;;;4978223;28;9303;-78
2022/08/06 01:18:48;;;;;;;;;2.00;2.00;;;;;;;;4985583;28;9350;-79
2022/08/06 01:21:31;;;;;;;;;1.75;1.75;;;;;;;;4983858;28;9574;-80
2022/08/06 01:24:20;;;;;;;;;1.00;1.00;;;;;;;;4985105;28;10472;-79
2022/08/06 01:26:52;;;;;;;;;3.25;2.00;;;;;;;;4981337;28;9558;-79
2022/08/06 01:29:24;;;;;;;;;2.00;2.00;;;;;;;;4986527;28;9623;-80
2022/08/06 01:31:54;;;;;;;;;1.00;1.00;;;;;;;;4984583;28;9929;-78
2022/08/06 01:34:25;;;;;;;;;1.00;1.00;;;;;;;;4984971;28;9899;-78
2022/08/06 01:36:57;;;;;;;;;1.00;1.00;;;;;;;;4985009;28;11098;-79
2022/08/06 01:39:27;;;;;;;;;2.50;2.50;;;;;;;;4969076;28;9991;-79
2022/08/06 01:41:56;;;;;;;;;1.00;1.00;;;;;;;;4988851;28;10891;-81
2022/08/06 01:44:30;;;;;;;;;2.00;2.00;;;;;;;;4982648;28;9909;-80
2022/08/06 01:47:01;;;;;;;;;2.00;0.25;;;;;;;;4984564;28;10074;-87
2022/08/06 01:49:30;;;;;;;;;1.00;1.00;;;;;;;;4984364;28;9958;-86
2022/08/06 01:52:01;;;;;;;;;2.00;2.00;;;;;;;;4986655;28;10053;-85
2022/08/06 01:54:29;;;;;;;;;1.50;1.50;;;;;;;;4984473;28;10179;-86
2022/08/06 01:57:02;;;;;;;;;2.00;2.00;;;;;;;;4986671;28;10193;-85
2022/08/06 01:59:35;;;;;;;;;1.75;1.75;;;;;;;;4986593;28;10135;-84
2022/08/06 02:02:04;;;;;;;;;4.00;3.00;;;;;;;;4973241;28;10076;-85
2022/08/06 02:04:38;;;;;;;;;1.00;1.00;;;;;;;;4985939;28;10301;-85
2022/08/06 02:07:09;;;;;;;;;1.75;1.75;;;;;;;;4985463;28;10285;-85
2022/08/06 02:09:38;;;;;;;;;2.50;2.50;;;;;;;;4986290;28;10122;-85
2022/08/06 02:12:09;;;;;;;;;2.00;2.00;;;;;;;;4984486;28;10337;-86
2022/08/06 02:14:40;;;;;;;;;3.00;1.00;;;;;;;;4985816;28;10513;-83
2022/08/06 02:17:08;;;;;;;;;3.00;3.00;;;;;;;;4983143;28;11369;-83
2022/08/06 02:19:36;;;;;;;;;1.75;1.75;;;;;;;;4982214;28;10665;-85
2022/08/06 02:22:05;;;;;;;;;1.00;1.00;;;;;;;;4986491;28;10431;-83
2022/08/06 02:24:33;;;;;;;;;2.00;2.00;;;;;;;;4985244;28;10493;-86
2022/08/06 02:27:01;;;;;;;;;3.00;2.00;;;;;;;;4985701;28;10433;-84
2022/08/06 02:29:29;;;;;;;;;2.50;2.00;;;;;;;;4985934;28;10577;-86
2022/08/06 02:31:58;;;;;;;;;3.50;2.00;;;;;;;;4985737;28;10362;-84
2022/08/06 02:34:28;;;;;;;;;2.00;2.00;;;;;;;;4986288;28;10484;-85
2022/08/06 02:37:04;;;;;;;;;2.00;2.00;;;;;;;;4984895;28;10511;-85
2022/08/06 02:39:35;;;;;;;;;2.00;2.00;;;;;;;;4985771;28;10559;-85
2022/08/06 02:42:07;;;;;;;;;2.00;2.00;;;;;;;;4982556;28;10508;-85
2022/08/06 02:44:41;;;;;;;;;2.00;2.00;;;;;;;;4981569;28;10541;-85
2022/08/06 02:47:13;;;;;;;;;2.00;2.00;;;;;;;;4984876;28;10412;-86
2022/08/06 02:49:44;;;;;;;;;1.00;1.00;;;;;;;;4984871;28;10598;-86
2022/08/06 02:52:16;;;;;;;;;1.75;1.75;;;;;;;;4984375;28;10459;-86
2022/08/06 02:54:48;;;;;;;;;1.25;1.25;;;;;;;;4984635;28;10600;-86
2022/08/06 02:57:19;;;;;;;;;0.75;0.75;;;;;;;;4985839;28;10580;-86
2022/08/06 02:59:48;;;;;;;;;2.25;2.25;;;;;;;;4986424;28;10706;-86
2022/08/06 03:02:18;;;;;;;;;2.25;2.25;;;;;;;;4985417;28;10714;-87
2022/08/06 03:04:48;;;;;;;;;1.00;1.00;;;;;;;;4984309;28;10663;-86
2022/08/06 03:07:17;;;;;;;;;1.00;1.00;;;;;;;;4991649;28;10644;-86
2022/08/06 03:09:48;;;;;;;;;0.75;0.75;;;;;;;;4985157;28;10772;-86
2022/08/06 03:12:17;;;;;;;;;2.00;2.00;;;;;;;;4987850;28;10813;-84
2022/08/06 03:14:46;;;;;;;;;2.00;2.00;;;;;;;;4989343;28;10920;-87
2022/08/06 03:17:15;;;;;;;;;0.00;0.00;;;;;;;;4970012;28;10930;-86
2022/08/06 03:19:45;;;;;;;;;2.00;1.00;;;;;;;;4979226;28;10801;-85
2022/08/06 03:22:13;;;;;;;;;1.00;1.00;;;;;;;;4984856;28;11007;-86
2022/08/06 03:24:41;;;;;;;;;1.00;1.00;;;;;;;;4983619;28;10938;-85
2022/08/06 03:27:09;;;;;;;;;5.25;2.00;;;;;;;;4985193;28;10919;-85
2022/08/06 03:29:39;;;;;;;;;1.00;1.00;;;;;;;;4983635;28;11930;-86
2022/08/06 03:32:07;;;;;;;;;1.50;1.50;;;;;;;;4983758;28;11014;-83
2022/08/06 03:34:36;;;;;;;;;2.25;2.25;;;;;;;;4987390;28;11194;-87
2022/08/06 03:37:05;;;;;;;;;2.75;2.75;;;;;;;;4984533;28;11181;-86
2022/08/06 03:39:34;;;;;;;;;2.25;2.25;;;;;;;;4984433;28;11179;-84
2022/08/06 03:42:01;;;;;;;;;2.75;2.75;;;;;;;;4985361;28;11274;-83
2022/08/06 03:44:31;;;;;;;;;3.00;3.00;;;;;;;;4984908;28;11656;-86
2022/08/06 03:47:02;;;;;;;;;2.75;2.75;;;;;;;;4981557;28;11517;-85
2022/08/06 03:49:33;;;;;;;;;3.00;3.00;;;;;;;;4985201;28;11215;-87
2022/08/06 03:52:02;;;;;;;;;2.25;2.25;;;;;;;;4983757;28;11123;-82
2022/08/06 03:54:32;;;;;;;;;4.00;4.00;;;;;;;;4976647;28;11203;-85
2022/08/06 03:57:07;;;;;;;;;3.00;3.00;;;;;;;;4984147;28;11613;-86
2022/08/06 03:59:36;;;;;;;;;5.00;5.00;;;;;;;;4987921;28;11490;-85
2022/08/06 04:02:04;;;;;;;;;5.50;5.50;;;;;;;;4975054;28;11468;-85
2022/08/06 04:04:32;;;;;;;;;8.00;8.00;;;;;;;;4985173;28;11508;-84
2022/08/06 04:07:03;;;;;;;;;9.00;9.00;;;;;;;;4988594;28;11503;-86
2022/08/06 04:09:33;;;;;;;;;8.00;8.00;;;;;;;;4981973;28;12329;-86
2022/08/06 04:12:01;;;;;;;;;13.25;10.25;;;;;;;;4988297;28;11513;-86
2022/08/06 04:14:29;;;;;;;;;6.00;6.00;;;;;;;;4987968;28;12280;-85
2022/08/06 04:16:58;;;;;;;;;8.00;8.00;;;;;;;;4976292;28;11506;-85
2022/08/06 04:19:25;;;;;;;;;9.25;9.25;;;;;;;;4986228;28;11607;-85
2022/08/06 04:21:53;;;;;;;;;6.50;6.50;;;;;;;;4986807;28;11531;-84
2022/08/06 04:24:22;;;;;;;;;3.75;3.75;;;;;;;;4987902;28;11667;-84
2022/08/06 04:26:53;;;;;;;;;2.00;2.00;;;;;;;;4986828;28;11492;-80
2022/08/06 04:29:23;;;;;;;;;2.50;2.50;;;;;;;;4987497;28;11996;-83
2022/08/06 04:31:52;;;;;;;;;2.00;2.00;;;;;;;;4987478;28;11259;-80
2022/08/06 04:34:23;;;;;;;;;2.00;2.00;;;;;;;;4986964;28;11805;-79
2022/08/06 04:36:52;;;;;;;;;3.00;2.75;;;;;;;;4987550;28;11002;-79
2022/08/06 04:39:21;;;;;;;;;1.75;1.75;;;;;;;;4991833;28;11111;-80
2022/08/06 04:41:49;;;;;;;;;4.25;1.25;;;;;;;;5002411;28;10993;-79
2022/08/06 04:44:16;;;;;;;;;1.25;1.25;;;;;;;;4984609;28;10883;-79
2022/08/06 04:46:48;;;;;;;;;1.00;1.00;;;;;;;;4985698;28;10866;-78
2022/08/06 04:49:16;;;;;;;;;3.00;1.00;;;;;;;;4986217;28;10971;-81
2022/08/06 04:51:46;;;;;;;;;1.25;1.25;;;;;;;;4986348;28;10996;-81
2022/08/06 04:54:14;;;;;;;;;3.00;1.00;;;;;;;;4987838;28;10868;-81
2022/08/06 04:56:44;;;;;;;;;1.25;1.25;;;;;;;;4997134;28;10792;-85
2022/08/06 04:59:11;;;;;;;;;2.00;2.00;;;;;;;;4987456;28;10882;-80
2022/08/06 05:01:39;;;;;;;;;1.50;1.25;;;;;;;;4985562;28;10728;-85
2022/08/06 05:04:06;;;;;;;;;2.25;2.25;;;;;;;;4980024;28;10731;-83
2022/08/06 05:06:39;;;;;;;;;1.25;1.25;;;;;;;;4983234;28;10931;-83
2022/08/06 05:09:10;;;;;;;;;1.00;1.00;;;;;;;;4986711;28;10773;-84
2022/08/06 05:11:44;;;;;;;;;2.00;2.00;;;;;;;;4986729;28;10950;-82
2022/08/06 05:14:15;;;;;;;;;2.00;2.00;;;;;;;;4986126;28;10812;-84
2022/08/06 05:16:45;;;;;;;;;2.75;2.75;;;;;;;;4981147;28;10784;-83
2022/08/06 05:19:18;;;;;;;;;2.00;2.00;;;;;;;;4979829;28;10741;-83
2022/08/06 05:21:47;;;;;;;;;1.75;1.75;;;;;;;;4974883;28;10871;-80
2022/08/06 05:24:14;;;;;;;;;3.00;2.00;;;;;;;;4985366;28;10657;-85
2022/08/06 05:26:43;;;;;;;;;3.00;3.00;;;;;;;;4986279;28;10656;-85
2022/08/06 05:29:11;;;;;;;;;2.00;2.00;;;;;;;;4986634;28;10574;-86
2022/08/06 05:31:40;;;;;;;;;2.00;2.00;;;;;;;;4985008;28;10594;-79
2022/08/06 05:34:11;;;;;;;;;3.00;3.00;;;;;;;;4986681;28;10536;-80
2022/08/06 05:36:39;;;;;;;;;5.00;3.25;;;;;;;;4985509;28;10570;-84
2022/08/06 05:39:06;;;;;;;;;2.50;2.50;;;;;;;;4986250;28;11394;-78
2022/08/06 05:41:35;;;;;;;;;3.50;3.50;;;;;;;;4986411;28;10417;-81
2022/08/06 05:44:04;;;;;;;;;3.00;3.00;;;;;;;;4985183;28;10506;-81
2022/08/06 05:46:35;;;;;;;;;3.00;3.00;;;;;;;;4986503;28;10337;-83
2022/08/06 05:49:07;;;;;;;;;3.75;3.75;;;;;;;;4985078;28;10349;-79
2022/08/06 05:51:39;;;;;;;;;1.75;1.75;;;;;;;;4986097;28;10302;-83
2022/08/06 05:54:12;;;;;;;;;2.75;2.00;;;;;;;;4985264;28;10208;-80
2022/08/06 05:56:45;;;;;;;;;2.00;2.00;;;;;;;;4984286;28;10316;-81
2022/08/06 05:59:22;;;;;;;;;2.00;2.00;;;;;;;;4986433;28;10189;-82
2022/08/06 06:01:50;;;;;;;;;1.75;1.75;;;;;;;;4984747;28;10012;-80
2022/08/06 06:04:19;;;;;;;;;4.00;3.75;;;;;;;;4986289;28;10102;-79
2022/08/06 06:06:47;;;;;;;;;2.00;2.00;;;;;;;;4984981;28;10257;-83
2022/08/06 06:09:14;;;;;;;;;4.00;2.50;;;;;;;;4976037;28;10079;-82
2022/08/06 06:11:42;;;;;;;;;2.00;2.00;;;;;;;;4982260;28;9878;-83
2022/08/06 06:14:26;;;;;;;;;2.00;2.00;;;;;;;;4985501;28;10047;-82
2022/08/06 06:16:59;;;;;;;;;3.00;3.00;;;;;;;;4973012;28;9966;-82
2022/08/06 06:19:34;;;;;;;;;2.50;2.50;;;;;;;;4983239;28;9849;-82
2022/08/06 06:22:06;;;;;;;;;2.25;2.25;;;;;;;;4984260;28;9751;-82
2022/08/06 06:24:36;;;;;;;;;1.50;1.50;;;;;;;;4985751;28;9631;-82
2022/08/06 06:27:06;;;;;;;;;2.75;2.75;;;;;;;;4984660;28;9609;-80
2022/08/06 06:29:41;;;;;;;;;2.00;2.00;;;;;;;;4984110;28;9574;-80
2022/08/06 06:32:18;;;;;;;;;2.00;2.00;;;;;;;;4984432;28;9680;-83
2022/08/06 06:34:52;;;;;;;;;2.75;2.75;;;;;;;;4985562;28;9601;-80
2022/08/06 06:37:25;;;;;;;;;0.67;0.67;;;;;;;;4982507;28;9583;-85
2022/08/06 06:40:05;;;;;;;;;5.33;2.00;;;;;;;;4985306;28;9360;-82
2022/08/06 06:42:38;;;;;;;;;1.33;1.33;;;;;;;;4984769;28;9400;-83
2022/08/06 06:45:13;;;;;;;;;2.00;2.00;;;;;;;;4984191;28;9275;-83
2022/08/06 06:47:47;;;;;;;;;2.33;2.33;;;;;;;;4984981;28;9296;-83
2022/08/06 06:50:18;;;;;;;;;1.67;1.67;;;;;;;;4983797;28;9297;-85
2022/08/06 06:52:47;;;;;;;;;2.00;2.00;;;;;;;;4985003;28;9119;-83
2022/08/06 06:55:20;;;;;;;;;2.00;2.00;;;;;;;;4984111;28;9171;-83
2022/08/06 06:57:51;;;;;;;;;3.00;3.00;;;;;;;;4984446;28;8959;-82
2022/08/06 07:00:20;;;;;;;;;2.00;2.00;;;;;;;;4981493;28;9184;-83
2022/08/06 07:02:49;;;;;;;;;2.00;1.75;;;;;;;;4976058;28;8978;-83
2022/08/06 07:05:17;;;;;;;;;2.25;2.25;;;;;;;;4985566;28;8871;-82
2022/08/06 07:07:47;;;;;;;;;2.00;2.00;;;;;;;;4984063;28;8882;-82
2022/08/06 07:10:15;;;;;;;;;2.00;2.00;;;;;;;;4984501;28;8883;-84
2022/08/06 07:12:44;;;;;;;;;1.75;1.75;;;;;;;;4984060;28;8983;-84
2022/08/06 07:15:13;;;;;;;;;2.00;2.00;;;;;;;;4983969;28;8882;-83
2022/08/06 07:17:43;;;;;;;;;2.00;2.00;;;;;;;;4984376;28;8854;-83
2022/08/06 07:20:12;;;;;;;;;1.00;1.00;;;;;;;;4983642;28;9461;-82
2022/08/06 07:22:43;;;;;;;;;0.00;0.00;;;;;;;;4984735;28;9401;-84
2022/08/06 07:25:13;;;;;;;;;2.25;2.00;;;;;;;;4983299;28;8883;-81
2022/08/06 07:27:43;;;;;;;;;1.50;1.50;;;;;;;;4982935;28;8887;-84
2022/08/06 07:30:12;;;;;;;;;0.50;0.50;;;;;;;;4983619;28;8965;-81
2022/08/06 07:32:41;;;;;;;;;1.00;1.00;;;;;;;;4982181;28;8867;-84
2022/08/06 07:35:11;;;;;;;;;0.75;0.75;;;;;;;;4982651;28;8910;-85
2022/08/06 07:37:43;;;;;;;;;1.25;1.25;;;;;;;;4987190;28;8888;-84
2022/08/06 07:40:17;;;;;;;;;1.00;1.00;;;;;;;;4991581;28;8875;-84
2022/08/06 07:42:47;;;;;;;;;0.00;0.00;;;;;;;;4971184;28;8891;-83
2022/08/06 07:45:14;;;;;;;;;0.00;0.00;;;;;;;;4983674;28;8883;-84
2022/08/06 07:47:44;;;;;;;;;1.00;1.00;;;;;;;;4983634;28;8887;-81
2022/08/06 07:50:14;;;;;;;;;0.75;0.75;;;;;;;;4995781;28;8898;-81
2022/08/06 07:52:42;;;;;;;;;0.00;0.00;;;;;;;;4984167;28;9641;-84
2022/08/06 07:55:11;;;;;;;;;1.75;0.50;;;;;;;;4983889;28;8906;-85
2022/08/06 07:57:39;;;;;;;;;2.25;1.00;;;;;;;;4994166;28;8883;-83
2022/08/06 08:00:08;;;;;;;;;2.50;1.00;;;;;;;;4982271;28;8902;-85
2022/08/06 08:02:35;;;;;;;;;0.50;0.00;;;;;;;;4981767;28;8890;-80
2022/08/06 08:07:50;;;;;;;;;0.00;0.00;;;;;;;;4976202;28;8843;-84
2022/08/06 08:10:19;;;;;;;;;0.00;0.00;;;;;;;;4983891;28;8879;-83
2022/08/06 08:12:46;;;;;;;;;0.00;0.00;;;;;;;;4982806;28;8875;-84
2022/08/06 08:15:14;;;;;;;;;0.50;0.50;;;;;;;;5014622;28;8905;-81
2022/08/06 08:17:41;;;;;;;;;0.00;0.00;;;;;;;;4981684;28;8878;-85
2022/08/06 08:20:11;;;;;;;;;0.50;0.50;;;;;;;;4986289;28;8887;-85
2022/08/06 08:22:40;;;;;;;;;0.00;0.00;;;;;;;;4986776;28;8985;-82
2022/08/06 08:25:09;;;;;;;;;0.00;0.00;;;;;;;;4984417;28;8871;-81
2022/08/06 08:27:36;;;;;;;;;0.00;0.00;;;;;;;;4982114;28;9582;-83
2022/08/06 08:30:04;;;;;;;;;0.50;0.50;;;;;;;;4982094;28;8882;-84
2022/08/06 08:32:31;;;;;;;;;0.00;0.00;;;;;;;;4983760;28;8909;-85
2022/08/06 08:34:58;;;;;;;;;0.00;0.00;;;;;;;;4983477;28;8867;-84
2022/08/06 08:37:28;;;;;;;;;0.00;0.00;;;;;;;;4985905;28;8883;-82
2022/08/06 08:39:55;;;;;;;;;0.00;0.00;;;;;;;;4989393;28;8857;-83
2022/08/06 08:42:32;;;;;;;;;0.00;0.00;;;;;;;;4982616;28;8961;-84
2022/08/06 08:45:00;;;;;;;;;0.00;0.00;;;;;;;;4981947;28;8875;-84
2022/08/06 08:47:28;;;;;;;;;0.80;0.00;;;;;;;;4980347;28;8893;-83
2022/08/06 08:49:58;;;;;;;;;0.00;0.00;;;;;;;;4987528;28;8882;-83
2022/08/06 08:52:29;;;;;;;;;0.00;0.00;;;;;;;;4985428;28;8884;-80
2022/08/06 08:55:02;;;;;;;;;1.20;0.00;;;;;;;;4986863;28;9637;-84
2022/08/06 08:57:32;;;;;;;;;0.00;0.00;;;;;;;;4989322;28;8868;-83
2022/08/06 09:00:01;;;;;;;;;1.00;1.00;;;;;;;;4985469;28;8944;-84
2022/08/06 09:02:29;;;;;;;;;0.20;0.20;;;;;;;;4992871;28;9783;-82
2022/08/06 09:04:56;;;;;;;;;2.40;1.00;;;;;;;;4986634;28;8895;-84
2022/08/06 09:07:24;;;;;;;;;0.20;0.20;;;;;;;;4987569;28;8886;-82
2022/08/06 09:09:52;;;;;;;;;1.00;1.00;;;;;;;;4985770;28;8894;-84
2022/08/06 09:12:20;;;;;;;;;1.00;1.00;;;;;;;;4986476;28;8926;-84
2022/08/06 09:17:37;;;;;;;;;0.60;0.60;;;;;;;;4977126;28;8879;-83
2022/08/06 09:20:06;;;;;;;;;1.60;0.60;;;;;;;;4986413;28;8863;-83
2022/08/06 09:22:33;;;;;;;;;0.20;0.20;;;;;;;;4988144;28;8911;-83
2022/08/06 09:25:03;;;;;;;;;1.40;1.00;;;;;;;;4986512;28;8883;-84
2022/08/06 09:27:35;;;;;;;;;1.00;1.00;;;;;;;;4986023;28;8883;-83
2022/08/06 09:30:07;;;;;;;;;1.80;1.00;;;;;;;;4986869;28;8887;-83
2022/08/06 09:32:39;;;;;;;;;0.80;0.80;;;;;;;;4986141;28;8837;-85
2022/08/06 09:35:19;;;;;;;;;0.40;0.20;;;;;;;;4985298;28;8889;-82
2022/08/06 09:37:47;;;;;;;;;0.00;0.00;;;;;;;;4990755;28;8880;-85
2022/08/06 09:40:18;;;;;;;;;0.00;0.00;;;;;;;;4985992;28;8907;-84
2022/08/06 09:42:48;;;;;;;;;0.00;0.00;;;;;;;;4986516;28;8903;-83
2022/08/06 09:45:17;;;;;;;;;0.00;0.00;;;;;;;;4984978;28;8912;-76
2022/08/06 09:47:45;;;;;;;;;0.00;0.00;;;;;;;;4984972;28;8895;-75
2022/08/06 09:50:13;;;;;;;;;0.20;0.20;;;;;;;;4985407;28;8885;-76
2022/08/06 09:52:41;;;;;;;;;0.60;0.60;;;;;;;;4984872;28;8881;-76
2022/08/06 09:55:09;;;;;;;;;0.60;0.60;;;;;;;;4985368;28;8877;-75
2022/08/06 09:57:46;;;;;;;;;0.00;0.00;;;;;;;;4983902;28;8881;-73
2022/08/06 10:00:26;;;;;;;;;0.20;0.20;;;;;;;;4985601;28;8869;-74
2022/08/06 10:02:57;;;;;;;;;1.40;0.20;;;;;;;;5004178;28;8874;-75
2022/08/06 10:05:25;;;;;;;;;2.20;0.60;;;;;;;;5003547;28;8989;-73
2022/08/06 10:08:16;;;;;;;;;0.60;0.60;;;;;;;;5005335;28;8851;-73
2022/08/06 10:10:45;;;;;;;;;0.40;0.40;;;;;;;;5005834;28;8916;-73
2022/08/06 10:13:17;;;;;;;;;1.00;1.00;;;;;;;;5004742;28;8941;-74
2022/08/06 10:18:34;;;;;;;;;0.40;0.40;;;;;;;;5001534;28;8890;-74
2022/08/06 10:21:02;;;;;;;;;0.60;0.60;;;;;;;;5003987;28;9590;-71
2022/08/06 10:23:32;;;;;;;;;0.80;0.80;;;;;;;;5003909;28;8863;-73
2022/08/06 10:25:59;;;;;;;;;0.00;0.00;;;;;;;;5003276;28;8884;-73
2022/08/06 10:28:28;;;;;;;;;0.00;0.00;;;;;;;;5004105;28;8858;-73
2022/08/06 10:31:04;;;;;;;;;0.20;0.20;;;;;;;;5004285;28;8819;-74
2022/08/06 10:33:44;;;;;;;;;1.80;0.80;;;;;;;;5006205;28;8862;-72
2022/08/06 10:36:14;;;;;;;;;0.80;0.80;;;;;;;;5003368;28;8897;-70
2022/08/06 10:38:45;;;;;;;;;0.80;0.80;;;;;;;;5004963;28;8879;-73
2022/08/06 10:41:14;;;;;;;;;2.80;2.00;;;;;;;;5003821;28;8980;-70
2022/08/06 10:43:43;;;;;;;;;0.00;0.00;;;;;;;;5004488;28;8969;-74
2022/08/06 10:46:12;;;;;;;;;3.20;1.60;;;;;;;;5003832;28;8866;-73
2022/08/06 10:48:42;;;;;;;;;0.80;0.80;;;;;;;;5003886;28;9978;-72
2022/08/06 10:51:11;;;;;;;;;1.00;1.00;;;;;;;;5004265;28;9630;-71
2022/08/06 10:53:41;;;;;;;;;1.80;1.80;;;;;;;;5003130;28;9009;-74
2022/08/06 10:56:10;;;;;;;;;0.80;0.80;;;;;;;;5004820;28;8858;-71
2022/08/06 10:58:39;;;;;;;;;0.00;0.00;;;;;;;;5003087;28;9009;-73
2022/08/06 11:01:11;;;;;;;;;1.20;0.20;;;;;;;;4995356;28;8803;-72
2022/08/06 11:03:59;;;;;;;;;1.80;0.80;;;;;;;;4984274;28;8908;-75
2022/08/06 11:06:58;;;;;;;;;1.80;1.80;;;;;;;;4982984;28;8879;-71
2022/08/06 11:09:39;;;;;;;;;0.60;0.60;;;;;;;;4984403;28;8883;-72
2022/08/06 11:12:22;;;;;;;;;0.00;0.00;;;;;;;;4971144;28;8863;-73
2022/08/06 11:14:50;;;;;;;;;0.00;0.00;;;;;;;;4983541;28;8878;-71
2022/08/06 11:17:18;;;;;;;;;0.00;0.00;;;;;;;;4983948;28;8867;-70
2022/08/06 11:19:47;;;;;;;;;0.40;0.40;;;;;;;;4983148;28;8859;-73
2022/08/06 11:22:36;;;;;;;;;0.00;0.00;;;;;;;;4984508;28;8871;-75
2022/08/06 11:25:04;;;;;;;;;0.00;0.00;;;;;;;;4979589;28;8883;-72
2022/08/06 11:27:52;;;;;;;;;0.00;0.00;;;;;;;;4984012;28;8903;-72
2022/08/06 11:30:20;;;;;;;;;0.00;0.00;;;;;;;;4984243;28;8886;-73
2022/08/06 11:32:50;;;;;;;;;1.00;1.00;;;;;;;;4983362;28;8875;-73
2022/08/06 11:35:43;;;;;;;;;1.00;1.00;;;;;;;;4984164;28;8875;-72
2022/08/06 11:38:12;;;;;;;;;2.00;2.00;;;;;;;;4973151;28;8859;-72
2022/08/06 11:40:57;;;;;;;;;3.80;2.80;;;;;;;;4983564;28;9704;-72
2022/08/06 11:43:46;;;;;;;;;1.00;1.00;;;;;;;;4982951;28;8875;-72
2022/08/06 11:46:24;;;;;;;;;1.00;1.00;;;;;;;;4972213;28;8879;-75
2022/08/06 11:49:18;;;;;;;;;1.00;1.00;;;;;;;;4984287;28;8912;-72
2022/08/06 11:51:47;;;;;;;;;3.00;2.00;;;;;;;;4983606;28;8985;-72
2022/08/06 11:54:16;;;;;;;;;2.00;2.00;;;;;;;;4983714;28;8867;-74
2022/08/06 11:57:18;;;;;;;;;2.00;2.00;;;;;;;;4983857;28;8871;-75
2022/08/06 11:59:49;;;;;;;;;3.60;2.00;;;;;;;;4983743;28;8885;-73
2022/08/06 12:02:18;;;;;;;;;3.40;3.40;;;;;;;;4983603;28;8848;-73
2022/08/06 12:04:47;;;;;;;;;2.00;2.00;;;;;;;;4982731;28;8875;-73
2022/08/06 12:07:20;;;;;;;;;3.80;3.40;;;;;;;;4982373;28;8898;-72
2022/08/06 12:09:58;;;;;;;;;3.20;3.20;;;;;;;;4979123;28;8972;-74
2022/08/06 12:12:40;;;;;;;;;4.00;2.40;;;;;;;;4982698;28;8917;-73
2022/08/06 12:15:37;;;;;;;;;0.60;0.60;;;;;;;;4983012;28;8879;-73
2022/08/06 12:18:05;;;;;;;;;0.60;0.60;;;;;;;;4974920;28;8929;-74
2022/08/06 12:20:35;;;;;;;;;2.00;2.00;;;;;;;;4981930;28;8867;-73
2022/08/06 12:23:04;;;;;;;;;0.60;0.60;;;;;;;;4980610;28;8902;-74
2022/08/06 12:25:32;;;;;;;;;0.20;0.20;;;;;;;;4984342;28;8907;-71
2022/08/06 12:28:00;;;;;;;;;3.60;2.00;;;;;;;;4987238;28;9673;-73
2022/08/06 12:30:27;;;;;;;;;1.00;0.60;;;;;;;;4986483;28;8877;-71
2022/08/06 12:33:02;;;;;;;;;0.00;0.00;;;;;;;;4986828;28;8992;-72
2022/08/06 12:35:30;;;;;;;;;0.00;0.00;;;;;;;;4987404;28;8855;-71
2022/08/06 12:37:58;;;;;;;;;0.00;0.00;;;;;;;;4986065;28;9027;-73
2022/08/06 12:40:28;;;;;;;;;0.00;0.00;;;;;;;;4981670;28;8883;-72
2022/08/06 12:43:09;;;;;;;;;0.00;0.00;;;;;;;;4985744;28;8896;-72
2022/08/06 12:45:37;;;;;;;;;0.00;0.00;;;;;;;;4984219;28;8871;-72
2022/08/06 12:48:06;;;;;;;;;0.00;0.00;;;;;;;;4985321;28;8862;-77
2022/08/06 12:50:35;;;;;;;;;0.00;0.00;;;;;;;;4985771;28;8954;-73
2022/08/06 12:53:07;;;;;;;;;0.00;0.00;;;;;;;;4985658;28;8878;-81
2022/08/06 12:55:37;;;;;;;;;0.00;0.00;;;;;;;;4985399;28;8957;-81
2022/08/06 12:58:05;;;;;;;;;0.00;0.00;;;;;;;;4983568;28;8867;-69
2022/08/06 13:00:42;;;;;;;;;0.00;0.00;;;;;;;;4973884;28;8847;-85
2022/08/06 13:03:10;;;;;;;;;0.00;0.00;;;;;;;;4983501;28;8855;-81
2022/08/06 13:05:37;;;;;;;;;0.00;0.00;;;;;;;;4984625;28;8871;-84
2022/08/06 13:08:06;;;;;;;;;0.00;0.00;;;;;;;;4981682;28;8875;-76
2022/08/06 13:10:34;;;;;;;;;1.00;0.00;;;;;;;;4986718;28;8980;-77
2022/08/06 13:13:03;;;;;;;;;0.00;0.00;;;;;;;;4986793;28;8969;-77
2022/08/06 13:15:31;;;;;;;;;0.00;0.00;;;;;;;;4986595;28;9800;-74
2022/08/06 13:18:04;;;;;;;;;0.00;0.00;;;;;;;;4983855;28;8878;-72
2022/08/06 13:20:39;;;;;;;;;0.00;0.00;;;;;;;;4988228;28;8866;-73
2022/08/06 13:23:08;;;;;;;;;0.80;0.00;;;;;;;;4985158;28;8867;-72
2022/08/06 13:25:42;;;;;;;;;0.40;0.00;;;;;;;;4982170;28;8895;-75
2022/08/06 13:28:10;;;;;;;;;0.00;0.00;;;;;;;;4980410;28;8870;-73
2022/08/06 13:30:38;;;;;;;;;0.00;0.00;;;;;;;;4981528;28;8856;-75
2022/08/06 13:33:16;;;;;;;;;0.00;0.00;;;;;;;;4983715;28;8891;-75
2022/08/06 13:35:43;;;;;;;;;0.00;0.00;;;;;;;;4984163;28;9017;-73
2022/08/06 13:38:26;;;;;;;;;0.00;0.00;;;;;;;;4984025;28;9014;-79
2022/08/06 13:40:53;;;;;;;;;1.00;0.00;;;;;;;;4984538;28;9680;-73
2022/08/06 13:43:21;;;;;;;;;0.00;0.00;;;;;;;;4984441;28;8886;-76
2022/08/06 13:45:50;;;;;;;;;0.00;0.00;;;;;;;;4985823;28;9029;-75
2022/08/06 13:48:18;;;;;;;;;0.00;0.00;;;;;;;;4984900;28;8906;-73
2022/08/06 13:50:47;;;;;;;;;0.00;0.00;;;;;;;;4984566;28;8879;-78
2022/08/06 13:53:19;;;;;;;;;0.00;0.00;;;;;;;;4980981;28;8874;-76
2022/08/06 13:55:46;;;;;;;;;0.00;0.00;;;;;;;;4983322;28;8901;-75
2022/08/06 13:58:13;;;;;;;;;0.00;0.00;;;;;;;;4985217;28;8873;-78
2022/08/06 14:00:43;;;;;;;;;25.20;25.00;;;;;;;;4982178;28;8822;-77
2022/08/06 14:03:10;;;;;;;;;0.20;0.20;;;;;;;;4982466;28;8859;-77
2022/08/06 14:05:37;;;;;;;;;0.00;0.00;;;;;;;;4982599;28;8908;-74
2022/08/06 14:08:05;;;;;;;;;0.00;0.00;;;;;;;;4985398;28;9008;-77
2022/08/06 14:10:33;;;;;;;;;0.00;0.00;;;;;;;;4987512;28;9027;-76
2022/08/06 14:13:19;;;;;;;;;0.00;0.00;;;;;;;;4981538;28;8903;-77
2022/08/06 14:15:49;;;;;;;;;1.00;0.00;;;;;;;;4983151;28;8871;-76
2022/08/06 14:18:17;;;;;;;;;0.00;0.00;;;;;;;;4982586;28;8875;-77
2022/08/06 14:20:44;;;;;;;;;0.00;0.00;;;;;;;;4982485;28;8879;-77
2022/08/06 14:23:13;;;;;;;;;0.00;0.00;;;;;;;;4982621;28;8914;-77
2022/08/06 14:25:43;;;;;;;;;1.00;1.00;;;;;;;;4986575;28;8885;-82
2022/08/06 14:28:11;;;;;;;;;1.00;1.00;;;;;;;;4980965;28;8894;-76
2022/08/06 14:30:38;;;;;;;;;3.00;1.60;;;;;;;;4982656;28;8839;-78
2022/08/06 14:33:08;;;;;;;;;1.00;1.00;;;;;;;;4984308;28;8855;-77
2022/08/06 14:35:36;;;;;;;;;1.40;1.40;;;;;;;;4981882;28;8897;-78
2022/08/06 14:38:04;;;;;;;;;1.00;1.00;;;;;;;;4976304;28;8843;-77
2022/08/06 14:46:03;;;;;;;;;0.60;0.60;;;;;;;;4980390;28;8827;-76
2022/08/06 14:48:31;;;;;;;;;1.80;1.80;;;;;;;;4979688;28;8890;-79
2022/08/06 14:50:58;;;;;;;;;1.00;0.00;;;;;;;;4977991;28;9727;-76
2022/08/06 14:53:26;;;;;;;;;2.00;2.00;;;;;;;;4980214;28;8941;-79
2022/08/06 14:55:55;;;;;;;;;0.60;0.60;;;;;;;;4984552;28;8922;-74
2022/08/06 14:58:25;;;;;;;;;0.80;0.80;;;;;;;;4981729;28;8888;-77
2022/08/06 15:00:53;;;;;;;;;2.20;1.00;;;;;;;;4979119;28;9621;-76
2022/08/06 15:03:20;;;;;;;;;1.00;1.00;;;;;;;;4984618;28;8914;-77
2022/08/06 15:05:48;;;;;;;;;2.00;2.00;;;;;;;;4987206;28;8891;-76
2022/08/06 15:08:15;;;;;;;;;1.00;1.00;;;;;;;;4983170;28;9453;-77
2022/08/06 15:10:43;;;;;;;;;1.00;1.00;;;;;;;;4983571;28;8922;-74
2022/08/06 15:13:10;;;;;;;;;0.40;0.20;;;;;;;;4987501;28;8909;-76
2022/08/06 15:15:39;;;;;;;;;2.00;0.60;;;;;;;;4985619;28;8981;-76
2022/08/06 15:18:06;;;;;;;;;1.00;1.00;;;;;;;;4982510;28;9669;-80
2022/08/06 15:20:33;;;;;;;;;0.00;0.00;;;;;;;;4986761;28;8893;-73
2022/08/06 15:23:00;;;;;;;;;0.20;0.20;;;;;;;;4982795;28;8887;-77
2022/08/06 15:25:28;;;;;;;;;0.00;0.00;;;;;;;;4982193;28;9670;-74
2022/08/06 15:27:55;;;;;;;;;0.20;0.00;;;;;;;;4989983;28;9653;-75